Independence of the Seas — C6WW4 — position and weather

sailwx.info

Track history (hours):
 
Tides and Currents Weather Stations Pressure Air Temp Water Temp Dewpoint Dewpoint Depression Visibility Wind Speed Wind Dir Waves Ship Positions

Independence of the Seas

Last reported at 2018-Dec-15 11:00 UTC. Time now 2018-Dec-15 11:03 UTC.
Position N 26°05' W 080°02'.

Length 339 m; draft 9 m.

Type: Passenger vessel. MMSI: 309374000.

Date/timePositionNaut miles runAvg speedWind from/ knotsBaromVisibWave heightAir tempDewpointWater temp
2018-Dec-15 11:00N 26°05' W 080°02'611.1
2018-Dec-15 10:30N 26°01' W 079°59'510.0
2018-Dec-15 10:00N 25°56' W 079°58'611.0
2018-Dec-15 09:30N 25°50' W 079°57'613.0
2018-Dec-15 09:00N 25°44' W 079°59'713.2
2018-Dec-15 08:30N 25°37' W 079°59'815.3
2018-Dec-15 08:00N 25°30' W 079°59'816.7
2018-Dec-15 07:30N 25°21' W 079°58'3615.8
2018-Dec-15 05:12N 24°51' W 080°20'315.1
2018-Dec-15 05:00N 24°48' W 080°23'914.7
2018-Dec-15 04:24N 24°42' W 080°28'43615.7
2018-Dec-14 00:42N 20°35' W 086°58'315.5
2018-Dec-14 00:31N 20°32' W 086°58'3 5.7
2018-Dec-13 23:58N 20°29' W 086°59'0 0.0
2018-Dec-13 23:28N 20°29' W 086°59'0 0.0
2018-Dec-13 22:58N 20°29' W 086°59'0 0.0
2018-Dec-13 22:29N 20°29' W 086°59'0 0.0
2018-Dec-13 21:59N 20°29' W 086°59'0 0.0
2018-Dec-13 21:29N 20°29' W 086°59'0 0.0
2018-Dec-13 20:59N 20°29' W 086°59'0 0.0
2018-Dec-13 20:29N 20°29' W 086°59'0 0.0
2018-Dec-13 19:59N 20°29' W 086°59'0 0.0
2018-Dec-13 19:29N 20°29' W 086°59'0 0.0
2018-Dec-13 18:59N 20°29' W 086°59'0 0.0
2018-Dec-13 18:26N 20°29' W 086°59'0 0.0
2018-Dec-13 17:56N 20°29' W 086°59'0 0.0
2018-Dec-13 17:29N 20°29' W 086°59'0 0.0
2018-Dec-13 16:59N 20°29' W 086°59'0 0.0
2018-Dec-13 16:29N 20°29' W 086°59'0 0.0
2018-Dec-13 15:53N 20°29' W 086°59'0 0.0
2018-Dec-13 15:26N 20°29' W 086°59'0 0.0
2018-Dec-13 14:59N 20°29' W 086°59'0 0.0
2018-Dec-13 14:29N 20°29' W 086°59'0 0.0
2018-Dec-13 13:59N 20°29' W 086°59'0 0.0
2018-Dec-13 13:29N 20°29' W 086°59'0 0.0
2018-Dec-13 12:59N 20°29' W 086°59'1 2.4
2018-Dec-13 12:30N 20°29' W 086°60'4 7.9
2018-Dec-13 12:00N 20°26' W 087°03'  
2018-Dec-11 04:03N 24°42' W 080°37'317.7
2018-Dec-11 03:52N 24°44' W 080°35'617.7
2018-Dec-11 03:31N 24°47' W 080°29'917.4
2018-Dec-11 03:00N 24°52' W 080°21'3615.7
2018-Dec-11 00:44N 25°23' W 079°60'415.6
2018-Dec-11 00:30N 25°26' W 079°59'815.6
2018-Dec-11 00:00N 25°34' W 079°59'815.6
2018-Dec-10 23:31N 25°42' W 079°59'815.8
2018-Dec-10 23:00N 25°50' W 079°59'816.2
2018-Dec-10 22:30N 25°58' W 080°00'815.2
2018-Dec-10 22:00N 26°04' W 080°04'3 5.9
2018-Dec-10 21:30N 26°05' W 080°07'0 0.0
2018-Dec-10 21:00N 26°05' W 080°07'0 0.0
2018-Dec-10 20:30N 26°05' W 080°07'0 0.0
2018-Dec-10 20:00N 26°05' W 080°07'0 0.0
2018-Dec-10 19:30N 26°05' W 080°07'0 0.0
2018-Dec-10 19:00N 26°05' W 080°07'0 0.0
2018-Dec-10 18:30N 26°05' W 080°07'0 0.0
2018-Dec-10 18:00N 26°05' W 080°07'0 0.0
2018-Dec-10 17:30N 26°05' W 080°07'0 0.0
2018-Dec-10 17:00N 26°05' W 080°07'0 0.0
2018-Dec-10 16:28N 26°05' W 080°07'0 0.0
2018-Dec-10 16:00N 26°05' W 080°07'0 0.0
2018-Dec-10 15:30N 26°05' W 080°07'0 0.0
2018-Dec-10 15:00N 26°05' W 080°07'0 0.0
2018-Dec-10 14:30N 26°05' W 080°07'0 0.0
2018-Dec-10 14:00N 26°05' W 080°07'0 0.0
2018-Dec-10 13:30N 26°05' W 080°07'0 0.0
2018-Dec-10 13:00N 26°05' W 080°07'0 0.0
2018-Dec-10 12:30N 26°05' W 080°07'0 0.0
2018-Dec-10 12:00N 26°05' W 080°07'0 0.0
2018-Dec-10 11:30N 26°05' W 080°07'0 0.5
2018-Dec-10 11:01N 26°06' W 080°07'4 8.5
2018-Dec-10 10:30N 26°05' W 080°02'611.3
2018-Dec-10 10:00N 25°60' W 079°60'714.8
2018-Dec-10 09:31N 25°53' W 079°57'713.7
2018-Dec-10 09:00N 25°46' W 079°56'612.6
2018-Dec-10 08:30N 25°40' W 079°58'713.9
2018-Dec-10 08:00N 25°33' W 079°58'714.2
2018-Dec-10 07:30N 25°26' W 079°57'714.3
2018-Dec-10 07:00N 25°19' W 079°57'912.6
2018-Dec-10 06:19N 25°12' W 080°02'2614.9
2018-Dec-10 04:34N 24°51' W 080°20'115.6
2018-Dec-10 04:30N 24°50' W 080°21'816.0
2018-Dec-10 04:01N 24°44' W 080°26'43915.5
2018-Dec-08 23:40N 20°35' W 086°58'315.9
2018-Dec-08 23:30N 20°32' W 086°58'3 6.8
2018-Dec-08 23:00N 20°29' W 086°59'0 0.0
2018-Dec-08 22:29N 20°29' W 086°59'0 0.0
2018-Dec-08 21:59N 20°29' W 086°59'0 0.0
2018-Dec-08 21:29N 20°29' W 086°59'0 0.0
2018-Dec-08 20:59N 20°29' W 086°59'0 0.0
2018-Dec-08 20:29N 20°29' W 086°59'0 0.0
2018-Dec-08 19:59N 20°29' W 086°59'0 0.0
2018-Dec-08 19:29N 20°29' W 086°59'0 0.0
2018-Dec-08 18:59N 20°29' W 086°59'0 0.0
2018-Dec-08 18:26N 20°29' W 086°59'0 0.0
2018-Dec-08 17:59N 20°29' W 086°59'0 0.0
2018-Dec-08 17:26N 20°29' W 086°59'0 0.0
2018-Dec-08 16:59N 20°29' W 086°59'0 0.0
2018-Dec-08 16:29N 20°29' W 086°59'0 0.0
2018-Dec-08 15:56N 20°29' W 086°59'0 0.0
2018-Dec-08 15:29N 20°29' W 086°59'0 0.0
2018-Dec-08 14:59N 20°29' W 086°59'0 0.0
2018-Dec-08 14:29N 20°29' W 086°59'0 0.0
2018-Dec-08 13:59N 20°29' W 086°59'0 0.0
2018-Dec-08 13:29N 20°29' W 086°59'0 0.0
2018-Dec-08 12:59N 20°29' W 086°59'0 0.0
2018-Dec-08 12:29N 20°29' W 086°59'2 3.3
2018-Dec-08 12:00N 20°30' W 086°59'510.7
2018-Dec-08 11:30N 20°35' W 086°57'43514.1
2018-Dec-07 04:43N 24°44' W 080°29'316.3
2018-Dec-07 04:30N 24°46' W 080°27'815.8
2018-Dec-07 04:00N 24°52' W 080°21'3414.9
2018-Dec-07 01:44N 25°21' W 080°01'314.8
2018-Dec-07 01:30N 25°24' W 080°00'815.0
2018-Dec-07 01:00N 25°31' W 079°59'715.1
2018-Dec-07 00:31N 25°39' W 079°59'815.1
2018-Dec-07 00:01N 25°46' W 079°59'714.3
2018-Dec-06 23:31N 25°54' W 079°58'510.9
2018-Dec-06 23:00N 25°59' W 079°59'5 9.3
2018-Dec-06 22:30N 26°03' W 080°02'5 9.8
2018-Dec-06 22:00N 26°06' W 080°07'0 0.8
2018-Dec-06 21:23N 26°05' W 080°07'0 0.0
2018-Dec-06 20:53N 26°05' W 080°07'0 0.0
2018-Dec-06 20:26N 26°05' W 080°07'0 0.0
2018-Dec-06 19:56N 26°05' W 080°07'0 0.0
2018-Dec-06 19:26N 26°05' W 080°07'0 0.0
2018-Dec-06 18:56N 26°05' W 080°07'0 0.0
2018-Dec-06 18:26N 26°05' W 080°07'0 0.0
2018-Dec-06 17:59N 26°05' W 080°07'0 0.0
2018-Dec-06 17:29N 26°05' W 080°07'0 0.0
2018-Dec-06 16:59N 26°05' W 080°07'0 0.0
2018-Dec-06 16:29N 26°05' W 080°07'0 0.0
2018-Dec-06 15:59N 26°05' W 080°07'0 0.0
2018-Dec-06 15:29N 26°05' W 080°07'0 0.0
2018-Dec-06 14:59N 26°05' W 080°07'0 0.0
2018-Dec-06 14:29N 26°05' W 080°07'0 0.0
2018-Dec-06 13:59N 26°05' W 080°07'0 0.0
2018-Dec-06 13:29N 26°05' W 080°07'0 0.0
2018-Dec-06 12:59N 26°05' W 080°07'0 0.0
2018-Dec-06 12:29N 26°05' W 080°07'0 0.0
2018-Dec-06 11:59N 26°05' W 080°07'0 0.3
2018-Dec-06 11:30N 26°05' W 080°07'3 6.8
2018-Dec-06 11:01N 26°06' W 080°03'510.0
2018-Dec-06 10:30N 26°02' W 079°60'1019.8
2018-Dec-06 10:01N 25°52' W 079°57'1223.3
2018-Dec-06 09:30N 25°40' W 079°57'1223.4
2018-Dec-06 09:00N 25°29' W 079°55'  
Track history (hours):
 
Tides and Currents Weather Stations Pressure Air Temp Water Temp Dewpoint Dewpoint Depression Visibility Wind Speed Wind Dir Waves Ship Positions

Independence of the Seas

Last reported at 2018-Dec-15 11:00 UTC. Time now 2018-Dec-15 11:03 UTC.
Position N 26°05' W 080°02'.

Length 339 m; draft 9 m.

Type: Passenger vessel. MMSI: 309374000.

Date/timePositionNaut miles runAvg speedWind from/ knotsBaromVisibWave heightAir tempDewpointWater temp
2018-Dec-15 11:00N 26°05' W 080°02'611.1
2018-Dec-15 10:30N 26°01' W 079°59'510.0
2018-Dec-15 10:00N 25°56' W 079°58'611.0
2018-Dec-15 09:30N 25°50' W 079°57'613.0
2018-Dec-15 09:00N 25°44' W 079°59'713.2
2018-Dec-15 08:30N 25°37' W 079°59'815.3
2018-Dec-15 08:00N 25°30' W 079°59'816.7
2018-Dec-15 07:30N 25°21' W 079°58'3615.8
2018-Dec-15 05:12N 24°51' W 080°20'315.1
2018-Dec-15 05:00N 24°48' W 080°23'914.7
2018-Dec-15 04:24N 24°42' W 080°28'43615.7
2018-Dec-14 00:42N 20°35' W 086°58'315.5
2018-Dec-14 00:31N 20°32' W 086°58'3 5.7
2018-Dec-13 23:58N 20°29' W 086°59'0 0.0
2018-Dec-13 23:28N 20°29' W 086°59'0 0.0
2018-Dec-13 22:58N 20°29' W 086°59'0 0.0
2018-Dec-13 22:29N 20°29' W 086°59'0 0.0
2018-Dec-13 21:59N 20°29' W 086°59'0 0.0
2018-Dec-13 21:29N 20°29' W 086°59'0 0.0
2018-Dec-13 20:59N 20°29' W 086°59'0 0.0
2018-Dec-13 20:29N 20°29' W 086°59'0 0.0
2018-Dec-13 19:59N 20°29' W 086°59'0 0.0
2018-Dec-13 19:29N 20°29' W 086°59'0 0.0
2018-Dec-13 18:59N 20°29' W 086°59'0 0.0
2018-Dec-13 18:26N 20°29' W 086°59'0 0.0
2018-Dec-13 17:56N 20°29' W 086°59'0 0.0
2018-Dec-13 17:29N 20°29' W 086°59'0 0.0
2018-Dec-13 16:59N 20°29' W 086°59'0 0.0
2018-Dec-13 16:29N 20°29' W 086°59'0 0.0
2018-Dec-13 15:53N 20°29' W 086°59'0 0.0
2018-Dec-13 15:26N 20°29' W 086°59'0 0.0
2018-Dec-13 14:59N 20°29' W 086°59'0 0.0
2018-Dec-13 14:29N 20°29' W 086°59'0 0.0
2018-Dec-13 13:59N 20°29' W 086°59'0 0.0
2018-Dec-13 13:29N 20°29' W 086°59'0 0.0
2018-Dec-13 12:59N 20°29' W 086°59'1 2.4
2018-Dec-13 12:30N 20°29' W 086°60'4 7.9
2018-Dec-13 12:00N 20°26' W 087°03'  
2018-Dec-11 04:03N 24°42' W 080°37'317.7
2018-Dec-11 03:52N 24°44' W 080°35'617.7
2018-Dec-11 03:31N 24°47' W 080°29'917.4
2018-Dec-11 03:00N 24°52' W 080°21'3615.7
2018-Dec-11 00:44N 25°23' W 079°60'415.6
2018-Dec-11 00:30N 25°26' W 079°59'815.6
2018-Dec-11 00:00N 25°34' W 079°59'815.6
2018-Dec-10 23:31N 25°42' W 079°59'815.8
2018-Dec-10 23:00N 25°50' W 079°59'816.2
2018-Dec-10 22:30N 25°58' W 080°00'815.2
2018-Dec-10 22:00N 26°04' W 080°04'3 5.9
2018-Dec-10 21:30N 26°05' W 080°07'0 0.0
2018-Dec-10 21:00N 26°05' W 080°07'0 0.0
2018-Dec-10 20:30N 26°05' W 080°07'0 0.0
2018-Dec-10 20:00N 26°05' W 080°07'0 0.0
2018-Dec-10 19:30N 26°05' W 080°07'0 0.0
2018-Dec-10 19:00N 26°05' W 080°07'0 0.0
2018-Dec-10 18:30N 26°05' W 080°07'0 0.0
2018-Dec-10 18:00N 26°05' W 080°07'0 0.0
2018-Dec-10 17:30N 26°05' W 080°07'0 0.0
2018-Dec-10 17:00N 26°05' W 080°07'0 0.0
2018-Dec-10 16:28N 26°05' W 080°07'0 0.0
2018-Dec-10 16:00N 26°05' W 080°07'0 0.0
2018-Dec-10 15:30N 26°05' W 080°07'0 0.0
2018-Dec-10 15:00N 26°05' W 080°07'0 0.0
2018-Dec-10 14:30N 26°05' W 080°07'0 0.0
2018-Dec-10 14:00N 26°05' W 080°07'0 0.0
2018-Dec-10 13:30N 26°05' W 080°07'0 0.0
2018-Dec-10 13:00N 26°05' W 080°07'0 0.0
2018-Dec-10 12:30N 26°05' W 080°07'0 0.0
2018-Dec-10 12:00N 26°05' W 080°07'0 0.0
2018-Dec-10 11:30N 26°05' W 080°07'0 0.5
2018-Dec-10 11:01N 26°06' W 080°07'4 8.5
2018-Dec-10 10:30N 26°05' W 080°02'611.3
2018-Dec-10 10:00N 25°60' W 079°60'714.8
2018-Dec-10 09:31N 25°53' W 079°57'713.7
2018-Dec-10 09:00N 25°46' W 079°56'612.6
2018-Dec-10 08:30N 25°40' W 079°58'713.9
2018-Dec-10 08:00N 25°33' W 079°58'714.2
2018-Dec-10 07:30N 25°26' W 079°57'714.3
2018-Dec-10 07:00N 25°19' W 079°57'912.6
2018-Dec-10 06:19N 25°12' W 080°02'2614.9
2018-Dec-10 04:34N 24°51' W 080°20'115.6
2018-Dec-10 04:30N 24°50' W 080°21'816.0
2018-Dec-10 04:01N 24°44' W 080°26'43915.5
2018-Dec-08 23:40N 20°35' W 086°58'315.9
2018-Dec-08 23:30N 20°32' W 086°58'3 6.8
2018-Dec-08 23:00N 20°29' W 086°59'0 0.0
2018-Dec-08 22:29N 20°29' W 086°59'0 0.0
2018-Dec-08 21:59N 20°29' W 086°59'0 0.0
2018-Dec-08 21:29N 20°29' W 086°59'0 0.0
2018-Dec-08 20:59N 20°29' W 086°59'0 0.0
2018-Dec-08 20:29N 20°29' W 086°59'0 0.0
2018-Dec-08 19:59N 20°29' W 086°59'0 0.0
2018-Dec-08 19:29N 20°29' W 086°59'0 0.0
2018-Dec-08 18:59N 20°29' W 086°59'0 0.0
2018-Dec-08 18:26N 20°29' W 086°59'0 0.0
2018-Dec-08 17:59N 20°29' W 086°59'0 0.0
2018-Dec-08 17:26N 20°29' W 086°59'0 0.0
2018-Dec-08 16:59N 20°29' W 086°59'0 0.0
2018-Dec-08 16:29N 20°29' W 086°59'0 0.0
2018-Dec-08 15:56N 20°29' W 086°59'0 0.0
2018-Dec-08 15:29N 20°29' W 086°59'0 0.0
2018-Dec-08 14:59N 20°29' W 086°59'0 0.0
2018-Dec-08 14:29N 20°29' W 086°59'0 0.0
2018-Dec-08 13:59N 20°29' W 086°59'0 0.0
2018-Dec-08 13:29N 20°29' W 086°59'0 0.0
2018-Dec-08 12:59N 20°29' W 086°59'0 0.0
2018-Dec-08 12:29N 20°29' W 086°59'2 3.3
2018-Dec-08 12:00N 20°30' W 086°59'510.7
2018-Dec-08 11:30N 20°35' W 086°57'43514.1
2018-Dec-07 04:43N 24°44' W 080°29'316.3
2018-Dec-07 04:30N 24°46' W 080°27'815.8
2018-Dec-07 04:00N 24°52' W 080°21'3414.9
2018-Dec-07 01:44N 25°21' W 080°01'314.8
2018-Dec-07 01:30N 25°24' W 080°00'815.0
2018-Dec-07 01:00N 25°31' W 079°59'715.1
2018-Dec-07 00:31N 25°39' W 079°59'815.1
2018-Dec-07 00:01N 25°46' W 079°59'714.3
2018-Dec-06 23:31N 25°54' W 079°58'510.9
2018-Dec-06 23:00N 25°59' W 079°59'5 9.3
2018-Dec-06 22:30N 26°03' W 080°02'5 9.8
2018-Dec-06 22:00N 26°06' W 080°07'0 0.8
2018-Dec-06 21:23N 26°05' W 080°07'0 0.0
2018-Dec-06 20:53N 26°05' W 080°07'0 0.0
2018-Dec-06 20:26N 26°05' W 080°07'0 0.0
2018-Dec-06 19:56N 26°05' W 080°07'0 0.0
2018-Dec-06 19:26N 26°05' W 080°07'0 0.0
2018-Dec-06 18:56N 26°05' W 080°07'0 0.0
2018-Dec-06 18:26N 26°05' W 080°07'0 0.0
2018-Dec-06 17:59N 26°05' W 080°07'0 0.0
2018-Dec-06 17:29N 26°05' W 080°07'0 0.0
2018-Dec-06 16:59N 26°05' W 080°07'0 0.0
2018-Dec-06 16:29N 26°05' W 080°07'0 0.0
2018-Dec-06 15:59N 26°05' W 080°07'0 0.0
2018-Dec-06 15:29N 26°05' W 080°07'0 0.0
2018-Dec-06 14:59N 26°05' W 080°07'0 0.0
2018-Dec-06 14:29N 26°05' W 080°07'0 0.0
2018-Dec-06 13:59N 26°05' W 080°07'0 0.0
2018-Dec-06 13:29N 26°05' W 080°07'0 0.0
2018-Dec-06 12:59N 26°05' W 080°07'0 0.0
2018-Dec-06 12:29N 26°05' W 080°07'0 0.0
2018-Dec-06 11:59N 26°05' W 080°07'0 0.3
2018-Dec-06 11:30N 26°05' W 080°07'3 6.8
2018-Dec-06 11:01N 26°06' W 080°03'510.0
2018-Dec-06 10:30N 26°02' W 079°60'1019.8
2018-Dec-06 10:01N 25°52' W 079°57'1223.3
2018-Dec-06 09:30N 25°40' W 079°57'1223.4
2018-Dec-06 09:00N 25°29' W 079°55'  

Dump ship's entire track history